Time;durP1;ratioP1;P1;durP2;ratioP2;P2;SDS_P1;SDS_P2;PMS_P1;PMS_P2;Temp;Humidity;BMP_temperature;BMP_pressure;BME280_temperature;BME280_humidity;BME280_pressure;Samples;Min_cycle;Max_cycle;Signal;HPM_P1;HPM_P2
2023/08/26 00:00:23;;;;;;;17.25;15.80;;;21.80;88.10;;;;;;5049732;28;20107;-62
2023/08/26 00:02:48;;;;;;;17.70;16.30;;;21.90;30.00;;;;;;5060479;28;20418;-63
2023/08/26 00:05:14;;;;;;;16.15;14.85;;;21.90;1.00;;;;;;5059567;28;20481;-62
2023/08/26 00:07:39;;;;;;;17.00;15.48;;;21.90;1.00;;;;;;5052464;28;20059;-64
2023/08/26 00:10:06;;;;;;;16.88;15.20;;;21.80;1.00;;;;;;5045513;28;20048;-64
2023/08/26 00:12:31;;;;;;;16.95;15.38;;;21.80;99.90;;;;;;5056404;28;20403;-62
2023/08/26 00:14:57;;;;;;;17.40;15.98;;;21.70;99.90;;;;;;5057399;28;20032;-63
2023/08/26 00:17:22;;;;;;;18.48;17.13;;;21.80;99.90;;;;;;5050050;28;20571;-62
2023/08/26 00:19:50;;;;;;;17.90;16.27;;;21.80;99.90;;;;;;5049523;28;20033;-63
2023/08/26 00:22:16;;;;;;;17.55;16.15;;;21.80;99.90;;;;;;5053795;28;20044;-62
2023/08/26 00:24:42;;;;;;;16.25;15.05;;;21.90;99.90;;;;;;5049944;28;20041;-62
2023/08/26 00:27:07;;;;;;;17.05;15.70;;;21.70;99.90;;;;;;5051069;28;20410;-63
2023/08/26 00:29:33;;;;;;;16.75;15.45;;;21.80;99.90;;;;;;5050211;28;20037;-63
2023/08/26 00:31:58;;;;;;;16.23;14.82;;;21.80;99.90;;;;;;5050684;28;20036;-63
2023/08/26 00:34:24;;;;;;;18.52;17.02;;;21.70;99.90;;;;;;5051468;28;20048;-62
2023/08/26 00:36:50;;;;;;;20.10;18.40;;;21.80;99.90;;;;;;5056154;28;20584;-63
2023/08/26 00:39:15;;;;;;;20.40;18.67;;;21.70;99.90;;;;;;5050246;28;20036;-63
2023/08/26 00:41:41;;;;;;;21.10;19.20;;;21.50;99.90;;;;;;5049494;28;20044;-63
2023/08/26 00:44:06;;;;;;;21.33;19.60;;;21.70;99.90;;;;;;5052965;28;20131;-62
2023/08/26 00:46:32;;;;;;;21.40;19.70;;;21.50;99.90;;;;;;5049760;28;20045;-62
2023/08/26 00:49:00;;;;;;;18.40;17.00;;;21.40;99.90;;;;;;5049449;28;20131;-62
2023/08/26 00:51:25;;;;;;;18.60;16.92;;;21.40;99.90;;;;;;5057360;28;20040;-62
2023/08/26 00:53:51;;;;;;;17.48;16.08;;;21.40;99.90;;;;;;5051990;28;20083;-62
2023/08/26 00:56:16;;;;;;;19.20;17.60;;;21.40;99.90;;;;;;5049194;28;20785;-65
2023/08/26 00:58:43;;;;;;;20.65;18.95;;;21.30;99.90;;;;;;5048092;28;20040;-65
2023/08/26 01:01:09;;;;;;;19.92;18.33;;;21.30;99.90;;;;;;5050579;28;20052;-64
2023/08/26 01:03:35;;;;;;;20.10;18.48;;;21.20;99.90;;;;;;5050557;28;20045;-65
2023/08/26 01:06:01;;;;;;;18.80;17.33;;;21.30;99.90;;;;;;5065761;28;20804;-64
2023/08/26 01:08:27;;;;;;;20.92;19.23;;;21.30;99.90;;;;;;5048722;28;20041;-64
2023/08/26 01:11:15;;;;;;;21.58;19.60;;;21.20;99.90;;;;;;5055712;28;20482;-65
2023/08/26 01:14:08;;;;;;;22.25;20.45;;;21.30;99.90;;;;;;5067622;28;20036;-64
2023/08/26 01:16:34;;;;;;;21.92;20.23;;;21.20;99.90;;;;;;5045042;28;20040;-65
2023/08/26 01:19:02;;;;;;;23.38;21.35;;;21.10;99.90;;;;;;5044236;28;20087;-64
2023/08/26 01:21:36;;;;;;;23.80;21.90;;;21.10;1.00;;;;;;5049158;28;20044;-65
2023/08/26 01:24:02;;;;;;;23.80;21.80;;;21.00;1.00;;;;;;5050158;28;20041;-64
2023/08/26 01:26:28;;;;;;;23.83;21.75;;;21.00;1.00;;;;;;5048837;28;20422;-64
2023/08/26 01:28:54;;;;;;;23.90;21.90;;;21.10;4.00;;;;;;5053658;28;20037;-65
2023/08/26 01:31:21;;;;;;;23.35;21.35;;;21.00;62.30;;;;;;5048978;28;20049;-65
2023/08/26 01:33:57;;;;;;;23.55;21.65;;;21.00;98.90;;;;;;5050041;28;20098;-64
2023/08/26 01:36:25;;;;;;;22.00;20.17;;;21.00;99.90;;;;;;5042787;28;20041;-64
2023/08/26 01:38:55;;;;;;;22.75;20.90;;;21.10;99.90;;;;;;5054496;28;20560;-65
2023/08/26 01:41:22;;;;;;;21.38;19.67;;;20.90;99.90;;;;;;5054896;28;20495;-64
2023/08/26 01:43:49;;;;;;;22.83;20.83;;;20.80;99.90;;;;;;5056703;28;20134;-64
2023/08/26 01:46:16;;;;;;;22.50;20.70;;;20.80;99.90;;;;;;5049632;28;20052;-65
2023/08/26 01:48:42;;;;;;;21.60;19.77;;;20.90;99.90;;;;;;5053848;28;20055;-64
2023/08/26 01:51:07;;;;;;;23.60;21.63;;;20.90;99.90;;;;;;5049525;28;20037;-65
2023/08/26 01:53:33;;;;;;;23.23;21.33;;;20.80;99.90;;;;;;5049782;28;20028;-65
2023/08/26 01:55:58;;;;;;;23.85;21.85;;;20.70;99.90;;;;;;5049531;28;20507;-64
2023/08/26 01:58:24;;;;;;;23.20;21.38;;;20.70;99.90;;;;;;5052122;28;20051;-64
2023/08/26 02:00:49;;;;;;;24.90;22.80;;;20.60;99.90;;;;;;5055868;28;20064;-64
2023/08/26 02:03:15;;;;;;;22.95;20.95;;;20.60;99.90;;;;;;5052203;28;20414;-65
2023/08/26 02:05:41;;;;;;;26.20;23.90;;;20.60;99.90;;;;;;5055267;28;20116;-65
2023/08/26 02:08:06;;;;;;;26.48;24.38;;;20.70;99.90;;;;;;5049700;28;20449;-63
2023/08/26 02:10:32;;;;;;;26.80;24.50;;;20.60;99.90;;;;;;5049661;28;20079;-62
2023/08/26 02:12:57;;;;;;;26.55;24.17;;;20.50;99.90;;;;;;5049677;28;20048;-63
2023/08/26 02:15:23;;;;;;;27.48;25.05;;;20.40;99.90;;;;;;5050810;28;20538;-62
2023/08/26 02:17:48;;;;;;;28.23;25.92;;;20.30;1.00;;;;;;5049892;28;20392;-62
2023/08/26 02:20:14;;;;;;;28.80;25.83;;;20.30;1.00;;;;;;5057211;28;20064;-62
2023/08/26 02:22:40;;;;;;;30.30;27.70;;;20.30;1.00;;;;;;5049377;28;20072;-63
2023/08/26 02:25:05;;;;;;;29.13;26.58;;;20.20;1.00;;;;;;5049600;28;20466;-64
2023/08/26 02:27:31;;;;;;;30.08;27.23;;;20.20;1.00;;;;;;5049360;28;20091;-62
2023/08/26 02:29:57;;;;;;;31.30;28.65;;;20.20;43.70;;;;;;5052661;28;20033;-62
2023/08/26 02:32:23;;;;;;;29.30;26.88;;;20.20;99.90;;;;;;5077163;28;20413;-62
2023/08/26 02:34:49;;;;;;;29.73;27.13;;;20.20;99.90;;;;;;5052410;28;20036;-63
2023/08/26 02:37:14;;;;;;;28.67;26.33;;;20.10;99.90;;;;;;5049428;28;20040;-62
2023/08/26 02:39:40;;;;;;;30.17;27.48;;;20.10;99.90;;;;;;5050688;28;20458;-62
2023/08/26 02:42:05;;;;;;;30.38;27.77;;;19.90;99.90;;;;;;5053279;28;20094;-63
2023/08/26 02:44:31;;;;;;;31.50;28.67;;;19.80;1.00;;;;;;5053205;28;20048;-62
2023/08/26 02:46:57;;;;;;;31.55;28.95;;;19.70;1.00;;;;;;5057437;28;20028;-62
2023/08/26 02:49:22;;;;;;;30.90;28.10;;;19.60;1.00;;;;;;5061931;28;20067;-62
2023/08/26 02:51:48;;;;;;;30.73;28.08;;;19.50;1.00;;;;;;5053158;28;20502;-62
2023/08/26 02:54:13;;;;;;;31.55;28.85;;;19.50;21.30;;;;;;5053527;28;20525;-64
2023/08/26 02:56:39;;;;;;;31.38;28.75;;;19.60;99.90;;;;;;5052883;28;20505;-62
2023/08/26 02:59:04;;;;;;;32.45;29.75;;;19.60;99.90;;;;;;5053149;28;20684;-62
2023/08/26 03:01:30;;;;;;;35.38;32.30;;;19.50;99.90;;;;;;5053092;28;20396;-62
2023/08/26 03:03:57;;;;;;;35.72;32.58;;;19.50;1.00;;;;;;5055245;28;20036;-62
2023/08/26 03:06:22;;;;;;;35.53;32.53;;;19.50;1.00;;;;;;5055363;28;20131;-62
2023/08/26 03:08:48;;;;;;;35.67;32.67;;;19.60;99.90;;;;;;5053241;28;20128;-62
2023/08/26 03:11:13;;;;;;;36.88;33.35;;;19.60;99.90;;;;;;5052873;28;20053;-62
2023/08/26 03:13:39;;;;;;;36.35;33.25;;;19.40;99.90;;;;;;5052837;28;20070;-62
2023/08/26 03:16:10;;;;;;;36.92;33.83;;;19.50;1.00;;;;;;5053426;28;20123;-63
2023/08/26 03:18:36;;;;;;;37.08;33.85;;;19.40;47.40;;;;;;5055462;28;20091;-62
2023/08/26 03:21:05;;;;;;;37.35;34.05;;;19.60;99.90;;;;;;5058772;28;20033;-63
2023/08/26 03:23:30;;;;;;;37.17;33.85;;;19.40;1.00;;;;;;5053018;28;20040;-62
2023/08/26 03:25:56;;;;;;;38.45;34.92;;;19.30;1.00;;;;;;5052582;28;20032;-62
2023/08/26 03:28:21;;;;;;;39.28;35.88;;;19.30;99.90;;;;;;5052608;28;20037;-63
2023/08/26 03:30:47;;;;;;;40.58;36.88;;;19.20;99.90;;;;;;5052725;28;20033;-62
2023/08/26 03:33:13;;;;;;;40.00;36.28;;;19.50;1.00;;;;;;5057863;28;20128;-62
2023/08/26 03:35:41;;;;;;;40.17;36.58;;;19.40;99.90;;;;;;5053551;28;20087;-62
2023/08/26 03:38:07;;;;;;;40.45;36.72;;;19.30;1.00;;;;;;5052513;28;20406;-61
2023/08/26 03:40:33;;;;;;;40.55;36.97;;;19.10;34.90;;;;;;5054470;28;20040;-62
2023/08/26 03:43:01;;;;;;;41.55;37.45;;;19.20;99.90;;;;;;5052615;28;20064;-62
2023/08/26 03:45:28;;;;;;;41.20;37.70;;;19.10;1.00;;;;;;5048744;28;20044;-63
2023/08/26 03:47:54;;;;;;;40.92;37.13;;;19.20;6.90;;;;;;5058832;28;20543;-63
2023/08/26 03:50:20;;;;;;;40.83;37.30;;;19.50;99.90;;;;;;5047695;28;20115;-63
2023/08/26 03:52:45;;;;;;;40.17;36.83;;;19.00;99.90;;;;;;5051424;28;20533;-62
2023/08/26 03:55:12;;;;;;;41.50;37.90;;;19.10;1.00;;;;;;5052235;28;20036;-61
2023/08/26 03:57:37;;;;;;;40.60;37.10;;;19.40;1.00;;;;;;5051557;28;20049;-62
2023/08/26 04:00:03;;;;;;;41.63;37.85;;;19.40;1.00;;;;;;5058420;28;20139;-61
2023/08/26 04:02:29;;;;;;;41.88;38.28;;;19.10;38.70;;;;;;5055690;28;20047;-62
2023/08/26 04:04:54;;;;;;;40.40;36.60;;;19.40;99.90;;;;;;5052333;28;20041;-63
2023/08/26 04:07:20;;;;;;;40.67;37.17;;;19.00;99.90;;;;;;5051686;28;20094;-62
2023/08/26 04:09:45;;;;;;;41.97;38.28;;;18.90;99.90;;;;;;5050201;28;20040;-61
2023/08/26 04:12:11;;;;;;;42.35;38.75;;;19.10;99.90;;;;;;5051548;28;20040;-62
2023/08/26 04:14:36;;;;;;;43.13;39.38;;;19.00;99.90;;;;;;5052596;28;20055;-62
2023/08/26 04:17:03;;;;;;;42.92;38.90;;;19.20;99.90;;;;;;5051405;28;20119;-61
2023/08/26 04:19:30;;;;;;;43.47;39.83;;;19.10;99.90;;;;;;5055454;28;20071;-62
2023/08/26 04:21:59;;;;;;;44.22;40.15;;;18.90;99.90;;;;;;5051189;28;20140;-62
2023/08/26 04:24:25;;;;;;;43.45;39.75;;;18.70;99.90;;;;;;5051582;28;20041;-61
2023/08/26 04:26:50;;;;;;;44.22;40.63;;;18.90;99.90;;;;;;5051027;28;20106;-61
2023/08/26 04:29:16;;;;;;;43.47;39.38;;;18.80;99.90;;;;;;5054440;28;20036;-63
2023/08/26 04:31:41;;;;;;;43.15;39.50;;;18.90;99.90;;;;;;5051186;28;20045;-62
2023/08/26 04:34:07;;;;;;;44.85;40.53;;;18.90;99.90;;;;;;5057790;28;20091;-62
2023/08/26 04:36:33;;;;;;;43.30;39.60;;;18.80;99.90;;;;;;5051070;28;20037;-63
2023/08/26 04:38:58;;;;;;;46.78;42.65;;;18.70;99.90;;;;;;5051038;28;20033;-62
2023/08/26 04:41:24;;;;;;;46.50;42.42;;;18.90;99.90;;;;;;5050952;28;20086;-62
2023/08/26 04:43:52;;;;;;;46.35;42.10;;;18.70;99.90;;;;;;5056358;28;20041;-62
2023/08/26 04:46:19;;;;;;;45.83;41.58;;;18.80;99.90;;;;;;5051085;28;20087;-62
2023/08/26 04:48:44;;;;;;;46.30;42.00;;;18.60;99.90;;;;;;5051657;28;20070;-62
2023/08/26 04:51:10;;;;;;;45.92;41.80;;;18.70;99.90;;;;;;5050740;28;20446;-63
2023/08/26 04:53:36;;;;;;;45.45;41.28;;;18.60;99.90;;;;;;5051079;28;20473;-62
2023/08/26 04:56:02;;;;;;;44.78;40.67;;;18.60;99.90;;;;;;5050856;28;20483;-64
2023/08/26 04:58:30;;;;;;;45.33;40.95;;;18.60;99.90;;;;;;5056794;28;20438;-62
2023/08/26 05:00:56;;;;;;;45.13;41.08;;;19.00;99.90;;;;;;5050450;28;20109;-61
2023/08/26 05:03:22;;;;;;;43.63;39.83;;;18.50;99.90;;;;;;5053311;28;20491;-62
2023/08/26 05:05:47;;;;;;;46.20;41.67;;;18.50;99.90;;;;;;5050867;28;20041;-63
2023/08/26 05:08:13;;;;;;;47.58;43.22;;;18.90;99.90;;;;;;5050268;28;20049;-62
2023/08/26 05:10:39;;;;;;;46.00;41.60;;;18.70;99.90;;;;;;5050572;28;20503;-62
2023/08/26 05:13:05;;;;;;;47.72;43.33;;;18.60;99.90;;;;;;5057983;28;20755;-63
2023/08/26 05:15:32;;;;;;;48.13;43.80;;;18.60;99.90;;;;;;5050649;28;20043;-62
2023/08/26 05:17:58;;;;;;;48.15;43.85;;;18.80;99.90;;;;;;5063042;28;20114;-62
2023/08/26 05:20:23;;;;;;;48.60;44.33;;;19.10;99.90;;;;;;5048530;28;20100;-62
2023/08/26 05:22:49;;;;;;;49.25;44.55;;;19.40;99.90;;;;;;5049205;28;20437;-63
2023/08/26 05:25:14;;;;;;;49.28;44.78;;;19.10;99.90;;;;;;5050484;28;20102;-62
2023/08/26 05:27:40;;;;;;;48.83;44.42;;;19.00;99.90;;;;;;5050373;28;20033;-63
2023/08/26 05:30:06;;;;;;;48.55;44.17;;;19.40;99.90;;;;;;5057837;28;20101;-62
2023/08/26 05:32:32;;;;;;;49.05;44.47;;;19.80;99.90;;;;;;5053329;28;20573;-62
2023/08/26 05:34:58;;;;;;;48.72;44.22;;;19.20;99.90;;;;;;5052227;28;20325;-62
2023/08/26 05:37:23;;;;;;;49.25;44.72;;;19.40;99.90;;;;;;5043544;28;20029;-64
2023/08/26 05:39:49;;;;;;;49.17;44.83;;;19.50;99.90;;;;;;5050658;28;20037;-64
2023/08/26 05:42:14;;;;;;;47.92;43.00;;;20.20;99.90;;;;;;5049618;28;20051;-64
2023/08/26 05:44:40;;;;;;;50.03;45.47;;;19.60;99.90;;;;;;5050008;28;20048;-64
2023/08/26 05:47:05;;;;;;;51.20;46.65;;;20.30;99.90;;;;;;5049852;28;20039;-64
2023/08/26 05:49:31;;;;;;;51.75;46.83;;;20.40;99.90;;;;;;5053876;28;20120;-64
2023/08/26 05:51:56;;;;;;;51.03;46.42;;;19.80;99.90;;;;;;5049870;28;20339;-64
2023/08/26 05:54:22;;;;;;;49.08;44.55;;;20.10;99.90;;;;;;5054402;28;20498;-64
2023/08/26 05:56:48;;;;;;;49.15;44.70;;;20.20;99.90;;;;;;5064587;28;20041;-64
2023/08/26 05:59:13;;;;;;;49.42;44.95;;;20.20;99.90;;;;;;5049480;28;20056;-64
2023/08/26 06:01:39;;;;;;;48.75;44.33;;;20.30;99.90;;;;;;5049609;28;20815;-64
2023/08/26 06:04:05;;;;;;;48.03;43.65;;;20.70;99.90;;;;;;5057933;28;20051;-64
2023/08/26 06:06:31;;;;;;;48.60;43.95;;;20.70;99.90;;;;;;5050673;28;20043;-64
2023/08/26 06:08:57;;;;;;;48.10;43.67;;;20.30;99.90;;;;;;5050991;28;20037;-64
2023/08/26 06:11:23;;;;;;;49.15;44.63;;;20.70;99.90;;;;;;5049593;28;20407;-64
2023/08/26 06:13:49;;;;;;;50.63;45.88;;;20.50;99.90;;;;;;5049901;28;20052;-64
2023/08/26 06:16:20;;;;;;;48.50;44.10;;;21.10;99.90;;;;;;5056157;28;20041;-64
2023/08/26 06:18:46;;;;;;;46.60;42.22;;;20.60;99.90;;;;;;5054749;28;20185;-64
2023/08/26 06:21:12;;;;;;;46.10;41.72;;;21.20;99.90;;;;;;5059885;28;20071;-64
2023/08/26 06:23:37;;;;;;;46.22;41.92;;;21.30;99.90;;;;;;5054475;28;20068;-64
2023/08/26 06:26:03;;;;;;;47.10;42.70;;;21.60;99.90;;;;;;5051639;28;20459;-64
2023/08/26 06:28:30;;;;;;;47.85;43.47;;;21.50;99.90;;;;;;5051047;28;20073;-64
2023/08/26 06:31:00;;;;;;;47.03;42.42;;;21.70;99.90;;;;;;5050729;28;20102;-64
2023/08/26 06:33:25;;;;;;;46.95;42.58;;;21.70;99.90;;;;;;5066490;28;20128;-64
2023/08/26 06:35:51;;;;;;;46.90;42.42;;;21.70;99.90;;;;;;5046294;28;20119;-64
2023/08/26 06:38:17;;;;;;;45.70;41.20;;;21.80;99.90;;;;;;5052159;28;20033;-64
2023/08/26 06:40:43;;;;;;;44.53;40.53;;;21.80;99.90;;;;;;5053125;28;20124;-64
2023/08/26 06:43:08;;;;;;;45.40;40.83;;;22.10;99.90;;;;;;5052486;28;20037;-64
2023/08/26 06:45:34;;;;;;;37.72;34.33;;;21.50;99.90;;;;;;5052752;28;20174;-64
2023/08/26 06:47:59;;;;;;;35.55;32.47;;;21.80;99.90;;;;;;5064342;28;20036;-63
2023/08/26 06:50:25;;;;;;;34.40;31.30;;;22.30;99.90;;;;;;5084073;28;20040;-63
2023/08/26 06:52:51;;;;;;;38.13;34.65;;;22.30;99.90;;;;;;5053636;28;20048;-63
2023/08/26 06:55:18;;;;;;;38.70;35.13;;;21.90;99.90;;;;;;5053588;28;20037;-62
2023/08/26 06:57:44;;;;;;;39.03;35.63;;;22.10;99.90;;;;;;5048770;28;20494;-63
2023/08/26 07:00:12;;;;;;;33.63;30.63;;;22.10;99.90;;;;;;5047850;28;20167;-63
2023/08/26 07:02:38;;;;;;;34.90;31.90;;;22.20;99.90;;;;;;5055371;28;20860;-63
2023/08/26 07:05:04;;;;;;;32.78;30.08;;;22.30;99.90;;;;;;5051340;28;20033;-62
2023/08/26 07:07:29;;;;;;;37.00;33.60;;;22.20;99.90;;;;;;5052392;28;20067;-62
2023/08/26 07:09:55;;;;;;;37.10;33.47;;;21.70;99.90;;;;;;5052610;28;20044;-63
2023/08/26 07:12:20;;;;;;;36.25;32.72;;;22.10;99.90;;;;;;5055310;28;20048;-61
2023/08/26 07:14:46;;;;;;;35.78;32.38;;;21.60;99.90;;;;;;5049026;28;20035;-62
2023/08/26 07:17:15;;;;;;;37.28;33.78;;;22.20;99.90;;;;;;5052545;28;20601;-63
2023/08/26 07:19:41;;;;;;;39.95;35.85;;;21.90;99.90;;;;;;5047783;28;20040;-62
2023/08/26 07:22:07;;;;;;;39.15;35.17;;;21.80;99.90;;;;;;5043522;28;20041;-64
2023/08/26 07:24:32;;;;;;;38.17;34.67;;;22.00;99.90;;;;;;5050696;28;20136;-63
2023/08/26 07:26:58;;;;;;;36.63;33.13;;;21.40;99.90;;;;;;5046084;28;20519;-62
2023/08/26 07:29:23;;;;;;;37.20;33.63;;;21.80;99.90;;;;;;5044253;28;20080;-62
2023/08/26 07:31:49;;;;;;;36.22;32.72;;;21.40;99.90;;;;;;5051944;28;20102;-62
2023/08/26 07:34:14;;;;;;;38.80;33.85;;;21.90;99.90;;;;;;5048146;28;20037;-63
2023/08/26 07:36:40;;;;;;;41.55;37.38;;;21.60;99.90;;;;;;5048105;28;20044;-63
2023/08/26 07:39:06;;;;;;;38.78;34.80;;;21.50;99.90;;;;;;5056278;28;20067;-62
2023/08/26 07:41:31;;;;;;;36.67;32.97;;;21.90;99.90;;;;;;5048942;28;20555;-62
2023/08/26 07:43:57;;;;;;;38.13;34.10;;;22.00;99.90;;;;;;5040891;28;20380;-63
2023/08/26 07:46:22;;;;;;;36.55;32.47;;;22.00;99.90;;;;;;5048483;28;20398;-63
2023/08/26 07:48:51;;;;;;;32.38;29.08;;;21.80;99.90;;;;;;5052161;28;20041;-62
2023/08/26 07:51:17;;;;;;;35.95;32.15;;;21.90;99.90;;;;;;5051515;28;20128;-63
2023/08/26 07:53:43;;;;;;;38.15;34.20;;;21.80;99.90;;;;;;5041663;28;20029;-63
2023/08/26 07:56:08;;;;;;;41.38;33.70;;;21.90;99.90;;;;;;5049562;28;20369;-63
2023/08/26 07:58:34;;;;;;;43.17;34.47;;;21.90;99.90;;;;;;5047841;28;20041;-64
2023/08/26 08:01:00;;;;;;;34.63;31.02;;;22.20;99.90;;;;;;5043061;28;20063;-64
2023/08/26 08:03:25;;;;;;;37.20;33.25;;;22.30;99.90;;;;;;5057494;28;20055;-64
2023/08/26 08:05:51;;;;;;;35.38;31.20;;;22.50;99.90;;;;;;5042014;28;20510;-64
2023/08/26 08:08:16;;;;;;;33.70;30.40;;;22.90;99.90;;;;;;5046959;28;20045;-64
2023/08/26 08:10:42;;;;;;;31.77;28.80;;;22.70;99.90;;;;;;5047504;28;20037;-64
2023/08/26 08:13:08;;;;;;;32.40;29.23;;;22.80;99.90;;;;;;5046276;28;20033;-64
2023/08/26 08:15:34;;;;;;;31.92;28.92;;;22.60;99.90;;;;;;5050126;28;20067;-64
2023/08/26 08:18:00;;;;;;;27.70;24.95;;;22.70;99.90;;;;;;5044699;28;20032;-64
2023/08/26 08:20:26;;;;;;;23.95;21.95;;;22.90;99.90;;;;;;5049176;28;20041;-64
2023/08/26 08:22:52;;;;;;;21.10;19.40;;;23.10;99.90;;;;;;5049839;28;20032;-64
2023/08/26 08:25:17;;;;;;;17.95;16.30;;;22.90;99.90;;;;;;5050834;28;20484;-64
2023/08/26 08:27:43;;;;;;;16.60;15.40;;;23.10;99.90;;;;;;5037821;28;20086;-64
2023/08/26 08:30:09;;;;;;;14.70;13.52;;;23.30;1.00;;;;;;5048196;28;20033;-64
2023/08/26 08:32:34;;;;;;;16.42;14.95;;;23.20;40.10;;;;;;5053846;28;20043;-64
2023/08/26 08:35:03;;;;;;;14.25;13.25;;;23.70;96.80;;;;;;5053815;28;20045;-64
2023/08/26 08:37:29;;;;;;;13.68;12.68;;;24.20;99.90;;;;;;5042343;28;20063;-64
2023/08/26 08:39:55;;;;;;;11.88;10.98;;;24.40;99.90;;;;;;5049384;28;20040;-64
2023/08/26 08:42:22;;;;;;;13.48;12.57;;;25.10;99.90;;;;;;5045568;28;20048;-64
2023/08/26 08:44:48;;;;;;;13.27;11.98;;;24.90;99.90;;;;;;5047011;28;20414;-64
2023/08/26 08:47:15;;;;;;;16.73;15.40;;;24.70;99.90;;;;;;5056572;28;20041;-64
2023/08/26 08:49:42;;;;;;;13.23;11.98;;;24.50;99.90;;;;;;5051099;28;20041;-64
2023/08/26 08:52:09;;;;;;;13.60;12.50;;;24.80;6.20;;;;;;5040956;28;20033;-64
2023/08/26 08:54:35;;;;;;;16.65;15.35;;;24.80;1.00;;;;;;5068479;28;20052;-64
2023/08/26 08:57:03;;;;;;;17.08;15.68;;;24.80;1.00;;;;;;5045621;28;20044;-64
2023/08/26 08:59:30;;;;;;;19.42;17.83;;;24.90;1.00;;;;;;5049939;28;20059;-64
2023/08/26 09:01:58;;;;;;;19.08;17.58;;;24.90;1.00;;;;;;5046472;28;20048;-64
2023/08/26 09:04:25;;;;;;;19.90;18.30;;;24.70;1.00;;;;;;5079053;28;20494;-64
2023/08/26 09:06:51;;;;;;;22.17;20.48;;;24.10;99.90;;;;;;5042398;28;20041;-65
2023/08/26 09:09:18;;;;;;;24.17;22.05;;;23.80;1.00;;;;;;5048854;28;20048;-64
2023/08/26 09:11:43;;;;;;;25.33;23.33;;;23.40;1.00;;;;;;5047377;28;20037;-64
2023/08/26 09:14:09;;;;;;;24.50;22.30;;;23.60;1.00;;;;;;5036159;28;20481;-66
2023/08/26 09:16:36;;;;;;;27.52;24.98;;;23.30;99.90;;;;;;5047616;28;20040;-64
2023/08/26 09:19:03;;;;;;;27.35;24.70;;;23.30;99.90;;;;;;5050697;28;20036;-64
2023/08/26 09:21:28;;;;;;;27.25;24.75;;;23.10;1.00;;;;;;5048061;28;20041;-64
2023/08/26 09:23:55;;;;;;;30.02;27.15;;;23.10;85.40;;;;;;5049758;28;20055;-64
2023/08/26 09:26:23;;;;;;;28.63;25.75;;;23.20;99.90;;;;;;5047546;28;20037;-64
2023/08/26 09:28:53;;;;;;;29.63;26.73;;;23.30;99.90;;;;;;5040985;28;20123;-63
2023/08/26 09:31:20;;;;;;;29.55;26.70;;;23.90;99.90;;;;;;5055542;28;20490;-63
2023/08/26 09:33:50;;;;;;;28.42;25.90;;;23.60;99.90;;;;;;5054367;28;20594;-63
2023/08/26 09:36:16;;;;;;;30.02;26.85;;;23.50;99.90;;;;;;5049338;28;20033;-64
2023/08/26 09:38:50;;;;;;;29.08;26.33;;;23.80;1.00;;;;;;5046874;28;20041;-64
2023/08/26 09:41:23;;;;;;;24.98;22.67;;;23.90;69.70;;;;;;5039243;28;20055;-64
2023/08/26 09:43:48;;;;;;;24.35;22.00;;;24.10;65.50;;;;;;5041938;28;20053;-65
2023/08/26 09:46:21;;;;;;;23.92;21.63;;;24.30;1.00;;;;;;5044244;28;20044;-64
2023/08/26 09:48:50;;;;;;;19.55;17.85;;;24.40;1.00;;;;;;5051927;28;20480;-65
2023/08/26 09:51:27;;;;;;;15.68;14.40;;;25.00;99.90;;;;;;5041463;28;20091;-64
2023/08/26 09:53:57;;;;;;;17.42;16.00;;;24.80;46.00;;;;;;5048231;28;20040;-64
2023/08/26 09:56:24;;;;;;;18.35;16.85;;;24.60;99.90;;;;;;5043247;28;20049;-65
2023/08/26 09:58:51;;;;;;;16.30;15.10;;;24.70;99.90;;;;;;5048750;28;20033;-64
2023/08/26 10:01:20;;;;;;;18.15;16.75;;;24.60;85.80;;;;;;5047104;28;20041;-64
2023/08/26 10:03:50;;;;;;;14.43;13.43;;;25.00;1.00;;;;;;5047366;28;20451;-65
2023/08/26 10:06:17;;;;;;;17.35;16.15;;;24.90;1.00;;;;;;5048198;28;20063;-64
2023/08/26 10:08:48;;;;;;;21.00;19.40;;;24.60;99.90;;;;;;5048940;28;20048;-65
2023/08/26 10:11:19;;;;;;;24.67;22.67;;;24.40;99.90;;;;;;5041864;28;20526;-63
2023/08/26 10:13:47;;;;;;;21.60;19.73;;;24.10;99.90;;;;;;5044076;28;20049;-63
2023/08/26 10:16:18;;;;;;;20.58;18.98;;;23.90;1.00;;;;;;5069476;28;20081;-63
2023/08/26 10:18:48;;;;;;;23.35;21.55;;;23.80;1.00;;;;;;5048906;28;20056;-64
2023/08/26 10:21:14;;;;;;;22.67;20.58;;;23.80;1.00;;;;;;5045975;28;20041;-64
2023/08/26 10:23:39;;;;;;;21.92;20.08;;;23.90;18.90;;;;;;5043364;28;20479;-64
2023/08/26 10:26:08;;;;;;;20.70;19.00;;;23.90;99.90;;;;;;5056303;28;20033;-64
2023/08/26 10:28:36;;;;;;;19.27;17.75;;;23.80;87.90;;;;;;5050111;28;20429;-64
2023/08/26 10:31:08;;;;;;;20.00;18.23;;;23.90;72.70;;;;;;5048111;28;20490;-64
2023/08/26 10:34:08;;;;;;;18.90;17.50;;;24.00;99.90;;;;;;5047280;28;20036;-64
2023/08/26 10:36:38;;;;;;;21.52;19.80;;;24.40;99.90;;;;;;5042388;28;20099;-64
2023/08/26 10:39:10;;;;;;;20.38;18.60;;;24.30;99.90;;;;;;5052767;28;20298;-64
2023/08/26 10:41:36;;;;;;;18.65;17.25;;;24.30;99.90;;;;;;5041455;28;20059;-64
2023/08/26 10:44:03;;;;;;;19.83;18.42;;;24.70;1.00;;;;;;5046302;28;20037;-65
2023/08/26 10:46:33;;;;;;;21.65;19.52;;;24.10;1.00;;;;;;5042288;28;20041;-65
2023/08/26 10:49:00;;;;;;;20.55;18.65;;;24.20;1.00;;;;;;5045369;28;20124;-64
2023/08/26 10:51:26;;;;;;;19.55;17.95;;;24.40;57.10;;;;;;5042756;28;20037;-64
2023/08/26 10:53:52;;;;;;;18.45;16.95;;;24.80;99.90;;;;;;5052210;28;20398;-65
2023/08/26 10:56:21;;;;;;;18.80;17.10;;;25.00;99.90;;;;;;5045999;28;20033;-64
2023/08/26 10:58:48;;;;;;;21.08;19.30;;;25.20;86.70;;;;;;5047857;28;20445;-64
2023/08/26 11:01:15;;;;;;;19.02;17.52;;;25.20;26.30;;;;;;5049451;28;20055;-64
2023/08/26 11:03:44;;;;;;;20.70;18.65;;;25.20;1.00;;;;;;5059483;28;20048;-65
2023/08/26 11:06:12;;;;;;;18.63;17.02;;;25.00;1.00;;;;;;5048415;28;20073;-64
2023/08/26 11:08:39;;;;;;;17.25;15.95;;;24.70;99.90;;;;;;5052422;28;20499;-64
2023/08/26 11:11:10;;;;;;;17.25;15.85;;;24.60;99.90;;;;;;5063410;28;20823;-64
2023/08/26 11:13:35;;;;;;;16.95;15.70;;;24.60;99.90;;;;;;5052925;28;20037;-64
2023/08/26 11:16:01;;;;;;;18.90;17.10;;;24.40;99.90;;;;;;5052063;28;20028;-64
2023/08/26 11:18:26;;;;;;;20.20;18.60;;;24.40;99.90;;;;;;5052803;28;20055;-64
2023/08/26 11:20:52;;;;;;;21.33;19.60;;;24.10;99.90;;;;;;5060275;28;20509;-64
2023/08/26 11:23:22;;;;;;;21.42;19.73;;;23.90;99.90;;;;;;5059641;28;20029;-64
2023/08/26 11:25:48;;;;;;;23.42;21.52;;;24.00;99.90;;;;;;5052952;28;20499;-64
2023/08/26 11:28:14;;;;;;;23.52;21.50;;;23.90;99.90;;;;;;5052218;28;20037;-62
2023/08/26 11:30:45;;;;;;;21.15;19.33;;;23.90;1.00;;;;;;5052653;28;20098;-61
2023/08/26 11:33:16;;;;;;;22.80;20.83;;;23.90;1.00;;;;;;5052244;28;20037;-61
2023/08/26 11:35:44;;;;;;;22.02;20.38;;;23.90;1.00;;;;;;5061961;28;20046;-61
2023/08/26 11:38:10;;;;;;;20.05;18.45;;;24.40;99.90;;;;;;5061113;28;20044;-62
2023/08/26 11:40:35;;;;;;;21.00;19.00;;;24.40;99.90;;;;;;5052164;28;20044;-62
2023/08/26 11:43:12;;;;;;;19.25;17.42;;;24.20;1.00;;;;;;5043966;28;20069;-62
2023/08/26 11:45:39;;;;;;;17.45;15.20;;;24.30;1.00;;;;;;5047809;28;20041;-61
2023/08/26 11:48:06;;;;;;;21.13;19.20;;;24.30;1.00;;;;;;5051038;28;20060;-65
2023/08/26 11:50:35;;;;;;;21.08;19.38;;;24.20;1.00;;;;;;5046476;28;20040;-62
2023/08/26 11:53:03;;;;;;;23.38;21.25;;;24.10;1.00;;;;;;5041394;28;20562;-61
2023/08/26 11:55:29;;;;;;;26.25;23.73;;;24.00;1.00;;;;;;5039239;28;20033;-62
2023/08/26 11:57:55;;;;;;;28.33;25.58;;;24.00;99.90;;;;;;5043961;28;20544;-61
2023/08/26 12:00:22;;;;;;;28.90;26.08;;;23.80;1.00;;;;;;5041661;28;20057;-60
2023/08/26 12:02:51;;;;;;;25.38;23.05;;;24.10;1.00;;;;;;5045686;28;20056;-61
2023/08/26 12:05:18;;;;;;;27.80;25.00;;;23.90;99.90;;;;;;5061040;28;20043;-62
2023/08/26 12:07:49;;;;;;;21.17;19.20;;;24.00;1.00;;;;;;5047837;28;20033;-62
2023/08/26 12:10:17;;;;;;;24.02;21.83;;;24.30;99.90;;;;;;5085225;28;20060;-61
2023/08/26 12:12:44;;;;;;;22.88;20.75;;;24.40;99.90;;;;;;5039852;28;20042;-61
2023/08/26 12:15:17;;;;;;;19.42;17.83;;;24.50;81.30;;;;;;5044349;28;20029;-61
2023/08/26 12:17:48;;;;;;;18.45;16.95;;;24.50;99.90;;;;;;5048712;28;20045;-61
2023/08/26 12:20:25;;;;;;;17.38;15.98;;;24.70;99.90;;;;;;5057024;28;20437;-61
2023/08/26 12:22:58;;;;;;;18.00;16.58;;;24.70;99.90;;;;;;5053607;28;20086;-60
2023/08/26 12:25:25;;;;;;;18.92;17.42;;;24.60;99.90;;;;;;5047609;28;20049;-61